createdAt,value
2023-04-08T00:01:41.054Z,9.66
2023-04-08T00:04:14.614Z,9.61
2023-04-08T00:06:47.115Z,9.56
2023-04-08T00:09:19.540Z,9.54
2023-04-08T00:11:51.767Z,9.54
2023-04-08T00:14:24.292Z,9.48
2023-04-08T00:16:56.761Z,9.46
2023-04-08T00:19:29.277Z,9.46
2023-04-08T00:22:02.017Z,9.40
2023-04-08T00:24:34.148Z,9.40
2023-04-08T00:27:06.927Z,9.40
2023-04-08T00:29:39.182Z,9.43
2023-04-08T00:32:12.046Z,9.38
2023-04-08T00:34:44.487Z,9.29
2023-04-08T00:37:17.612Z,9.32
2023-04-08T00:39:50.677Z,9.31
2023-04-08T00:42:23.164Z,9.19
2023-04-08T00:44:55.724Z,9.29
2023-04-08T00:47:28.163Z,9.13
2023-04-08T00:50:00.994Z,9.17
2023-04-08T00:52:33.345Z,9.23
2023-04-08T00:55:06.633Z,9.16
2023-04-08T00:57:39.399Z,9.20
2023-04-08T01:00:13.884Z,9.15
2023-04-08T01:02:52.804Z,9.21
2023-04-08T01:05:38.752Z,9.19
2023-04-08T01:08:13.048Z,9.15
2023-04-08T01:10:49.486Z,9.12
2023-04-08T01:13:24.870Z,9.14
2023-04-08T01:15:57.878Z,9.11
2023-04-08T01:18:32.167Z,9.10
2023-04-08T01:21:06.470Z,9.12
2023-04-08T01:23:47.869Z,9.13
2023-04-08T01:26:26.818Z,9.11
2023-04-08T01:29:01.910Z,9.06
2023-04-08T01:31:35.281Z,9.08
2023-04-08T01:34:08.987Z,9.07
2023-04-08T01:36:42.798Z,9.10
2023-04-08T01:39:17.650Z,9.09
2023-04-08T01:41:54.909Z,9.14
2023-04-08T01:44:27.534Z,9.03
2023-04-08T01:47:00.841Z,9.10
2023-04-08T01:49:33.626Z,9.01
2023-04-08T01:52:07.899Z,9.09
2023-04-08T01:54:40.586Z,9.05
2023-04-08T01:57:17.062Z,9.05
2023-04-08T01:59:52.844Z,9.01
2023-04-08T02:02:26.738Z,9.02
2023-04-08T02:04:59.480Z,8.98
2023-04-08T02:07:32.775Z,8.97
2023-04-08T02:10:06.161Z,8.91
2023-04-08T02:12:38.850Z,8.86
2023-04-08T02:15:16.931Z,8.79
2023-04-08T02:17:51.781Z,8.79
2023-04-08T02:20:32.267Z,8.76
2023-04-08T02:23:15.068Z,8.71
2023-04-08T02:25:48.778Z,8.69
2023-04-08T02:28:22.325Z,8.69
2023-04-08T02:30:56.779Z,8.68
2023-04-08T02:33:30.354Z,8.67
2023-04-08T02:36:03.670Z,8.66
2023-04-08T02:38:36.022Z,8.60
2023-04-08T02:41:08.517Z,8.59
2023-04-08T02:43:40.945Z,8.57
2023-04-08T02:46:28.273Z,8.56
2023-04-08T02:49:01.019Z,8.49
2023-04-08T02:51:33.467Z,8.46
2023-04-08T02:54:05.881Z,8.44
2023-04-08T02:56:38.382Z,8.39
2023-04-08T02:59:10.475Z,8.35
2023-04-08T03:01:42.930Z,8.38
2023-04-08T03:04:14.978Z,8.35
2023-04-08T03:06:47.173Z,8.18
2023-04-08T03:09:19.435Z,8.30
2023-04-08T03:11:54.849Z,8.29
2023-04-08T03:14:27.394Z,8.31
2023-04-08T03:16:59.885Z,8.22
2023-04-08T03:19:32.043Z,8.19
2023-04-08T03:22:04.323Z,8.19
2023-04-08T03:24:36.775Z,8.15
2023-04-08T03:27:09.591Z,8.07
2023-04-08T03:29:42.028Z,8.10
2023-04-08T03:32:14.721Z,8.13
2023-04-08T03:34:47.011Z,8.10
2023-04-08T03:37:19.647Z,8.18
2023-04-08T03:39:51.947Z,8.16
2023-04-08T03:42:24.767Z,8.14
2023-04-08T03:44:57.466Z,8.07
2023-04-08T03:47:30.765Z,8.00
2023-04-08T03:50:03.515Z,8.09
2023-04-08T03:52:35.796Z,8.07
2023-04-08T03:55:09.465Z,8.05
2023-04-08T03:57:41.811Z,8.06
2023-04-08T04:00:16.033Z,7.93
2023-04-08T04:02:50.377Z,8.00
2023-04-08T04:05:22.741Z,7.98
2023-04-08T04:07:55.143Z,7.96
2023-04-08T04:10:27.357Z,7.95
2023-04-08T04:13:00.011Z,7.94
2023-04-08T04:15:32.923Z,7.91
2023-04-08T04:18:05.611Z,7.88
2023-04-08T04:20:40.724Z,7.88
2023-04-08T04:23:13.286Z,7.87
2023-04-08T04:25:45.910Z,7.85
2023-04-08T04:28:18.481Z,7.84
2023-04-08T04:30:50.729Z,7.82
2023-04-08T04:33:23.104Z,7.81
2023-04-08T04:35:56.128Z,7.73
2023-04-08T04:38:28.541Z,7.77
2023-04-08T04:41:01.744Z,7.75
2023-04-08T04:43:34.325Z,7.71
2023-04-08T04:46:09.096Z,7.67
2023-04-08T04:48:41.838Z,7.65
2023-04-08T04:51:14.317Z,7.63
2023-04-08T04:53:46.688Z,7.63
2023-04-08T04:56:19.504Z,7.61
2023-04-08T04:58:52.288Z,7.59
2023-04-08T05:01:24.657Z,7.59
2023-04-08T05:03:57.139Z,7.58
2023-04-08T05:06:29.462Z,7.56
2023-04-08T05:09:02.194Z,7.55
2023-04-08T05:11:34.540Z,7.56
2023-04-08T05:14:07.337Z,7.56
2023-04-08T05:16:40.347Z,7.54
2023-04-08T05:19:13.196Z,7.55
2023-04-08T05:21:45.780Z,7.59
2023-04-08T05:24:18.231Z,7.64
2023-04-08T05:26:53.385Z,7.68
2023-04-08T05:29:25.953Z,7.71
2023-04-08T05:31:58.680Z,7.76
2023-04-08T05:34:32.498Z,7.75
2023-04-08T05:37:06.339Z,7.87
2023-04-08T05:39:38.722Z,7.93
2023-04-08T05:42:12.985Z,7.98
2023-04-08T05:44:46.203Z,8.05
2023-04-08T05:47:18.719Z,8.10
2023-04-08T05:49:51.368Z,8.18
2023-04-08T05:52:23.620Z,8.26
2023-04-08T05:54:56.022Z,8.33
2023-04-08T05:57:28.444Z,8.30
2023-04-08T06:00:00.929Z,8.42
2023-04-08T06:02:33.330Z,8.50
2023-04-08T06:05:06.697Z,8.56
2023-04-08T06:07:39.040Z,8.63
2023-04-08T06:10:14.119Z,8.71
2023-04-08T06:12:46.181Z,8.77
2023-04-08T06:15:18.661Z,8.81
2023-04-08T06:17:51.692Z,8.86
2023-04-08T06:20:24.100Z,8.90
2023-04-08T06:22:56.214Z,8.94
2023-04-08T06:25:28.621Z,8.87
2023-04-08T06:28:01.042Z,8.96
2023-04-08T06:30:33.238Z,9.06
2023-04-08T06:33:05.583Z,9.10
2023-04-08T06:35:38.637Z,9.11
2023-04-08T06:38:11.052Z,9.14
2023-04-08T06:40:43.273Z,9.21
2023-04-08T06:43:15.473Z,9.19
2023-04-08T06:45:47.950Z,9.26
2023-04-08T06:48:21.060Z,9.29
2023-04-08T06:50:53.272Z,9.30
2023-04-08T06:53:27.208Z,9.35
2023-04-08T06:55:59.418Z,9.31
2023-04-08T06:58:31.447Z,9.39
2023-04-08T07:01:04.242Z,9.42
2023-04-08T07:03:37.297Z,9.42
2023-04-08T07:06:09.726Z,9.39
2023-04-08T07:08:42.478Z,9.42
2023-04-08T07:11:14.676Z,9.46
2023-04-08T07:13:46.763Z,9.49
2023-04-08T07:16:19.190Z,9.44
2023-04-08T07:18:52.177Z,9.46
2023-04-08T07:21:24.722Z,9.51
2023-04-08T07:23:57.254Z,9.46
2023-04-08T07:26:29.710Z,9.45
2023-04-08T07:29:02.179Z,9.52
2023-04-08T07:31:34.568Z,9.54
2023-04-08T07:34:06.803Z,9.55
2023-04-08T07:36:39.390Z,9.61
2023-04-08T07:39:11.486Z,9.59
2023-04-08T07:41:43.720Z,9.64
2023-04-08T07:44:17.379Z,9.58
2023-04-08T07:46:51.920Z,9.52
2023-04-08T07:49:22.856Z,9.47
2023-04-08T07:51:55.059Z,9.50
2023-04-08T07:54:27.172Z,9.46
2023-04-08T07:57:00.183Z,9.26
2023-04-08T07:59:33.062Z,9.10
2023-04-08T08:02:05.546Z,9.30
2023-04-08T08:04:37.803Z,9.49
2023-04-08T08:07:10.766Z,9.46
2023-04-08T08:09:43.012Z,9.58
2023-04-08T08:12:15.061Z,9.55
2023-04-08T08:14:47.351Z,9.75
2023-04-08T08:17:20.011Z,9.75
2023-04-08T08:19:53.061Z,9.85
2023-04-08T08:22:25.826Z,9.99
2023-04-08T08:25:00.461Z,10.09
2023-04-08T08:27:34.560Z,10.17
2023-04-08T08:30:08.300Z,10.23
2023-04-08T08:32:40.757Z,10.29
2023-04-08T08:35:13.285Z,10.35
2023-04-08T08:37:45.767Z,10.38
2023-04-08T08:40:18.336Z,10.43
2023-04-08T08:42:54.622Z,10.40
2023-04-08T08:45:27.108Z,10.47
2023-04-08T08:48:01.296Z,10.43
2023-04-08T08:50:34.315Z,10.50
2023-04-08T08:53:06.523Z,10.54
2023-04-08T08:56:05.632Z,10.53
2023-04-08T08:58:31.838Z,11.51
2023-04-08T09:01:04.031Z,11.22
2023-04-08T09:03:36.947Z,11.11
2023-04-08T09:08:41.571Z,11.07
2023-04-08T09:11:18.338Z,11.03
2023-04-08T09:13:51.856Z,11.05
2023-04-08T09:16:24.314Z,11.07
2023-04-08T09:18:57.145Z,11.03
2023-04-08T09:21:29.635Z,11.07
2023-04-08T09:24:02.342Z,11.03
2023-04-08T09:26:34.460Z,11.07
2023-04-08T09:29:24.344Z,11.12
2023-04-08T09:31:59.702Z,11.12
2023-04-08T09:34:34.409Z,11.25
2023-04-08T09:37:07.281Z,11.26
2023-04-08T09:39:39.669Z,11.35
2023-04-08T09:42:14.191Z,11.40
2023-04-08T09:44:48.758Z,11.34
2023-04-08T09:47:27.199Z,11.45
2023-04-08T09:50:07.089Z,11.50
2023-04-08T09:52:50.466Z,11.59
2023-04-08T09:55:26.253Z,11.72
2023-04-08T09:58:03.321Z,11.80
2023-04-08T10:00:44.101Z,11.87
2023-04-08T10:03:27.828Z,11.89
2023-04-08T10:06:03.377Z,11.91
2023-04-08T10:08:36.478Z,11.93
2023-04-08T10:11:08.965Z,11.96
2023-04-08T10:13:41.417Z,12.03
2023-04-08T10:16:25.973Z,12.13
2023-04-08T10:18:58.833Z,12.19
2023-04-08T10:21:39.203Z,12.28
2023-04-08T10:24:12.728Z,12.28
2023-04-08T10:26:46.356Z,12.46
2023-04-08T10:29:44.129Z,13.59
2023-04-08T10:32:32.077Z,13.85
2023-04-08T10:35:04.587Z,13.46
2023-04-08T10:37:36.945Z,13.33
2023-04-08T10:40:19.835Z,13.32
2023-04-08T10:42:57.433Z,13.15
2023-04-08T10:45:29.980Z,13.16
2023-04-08T10:48:14.493Z,13.14
2023-04-08T10:50:53.253Z,13.08
2023-04-08T10:53:30.847Z,13.66
2023-04-08T10:56:13.402Z,13.36
2023-04-08T10:58:52.824Z,13.28
2023-04-08T11:01:26.250Z,13.22
2023-04-08T11:03:59.988Z,13.29
2023-04-08T11:06:33.154Z,14.02
2023-04-08T11:09:07.089Z,14.53
2023-04-08T11:11:39.424Z,14.51
2023-04-08T11:14:11.964Z,14.55
2023-04-08T11:16:44.126Z,14.94
2023-04-08T11:19:16.970Z,15.21
2023-04-08T11:21:49.372Z,15.10
2023-04-08T11:24:22.713Z,15.15
2023-04-08T11:26:55.221Z,15.49
2023-04-08T11:29:28.117Z,15.50
2023-04-08T11:32:00.614Z,15.47
2023-04-08T11:34:32.947Z,15.39
2023-04-08T11:37:05.168Z,15.36
2023-04-08T11:39:42.612Z,15.37
2023-04-08T11:42:29.858Z,15.86
2023-04-08T11:45:02.207Z,15.94
2023-04-08T11:47:35.825Z,15.98
2023-04-08T11:50:09.901Z,16.20
2023-04-08T11:52:47.033Z,16.52
2023-04-08T11:55:28.056Z,16.47
2023-04-08T11:58:06.466Z,16.21
2023-04-08T12:00:39.504Z,15.96
2023-04-08T12:03:12.261Z,15.75
2023-04-08T12:05:44.615Z,15.59
2023-04-08T12:08:17.929Z,15.39
2023-04-08T12:10:50.089Z,15.19
2023-04-08T12:13:22.498Z,15.11
2023-04-08T12:15:54.680Z,15.04
2023-04-08T12:18:27.468Z,14.94
2023-04-08T12:20:59.917Z,14.85
2023-04-08T12:23:32.530Z,14.79
2023-04-08T12:26:05.015Z,14.80
2023-04-08T12:28:37.801Z,14.85
2023-04-08T12:31:10.495Z,14.58
2023-04-08T12:33:42.802Z,15.00
2023-04-08T12:36:15.598Z,15.01
2023-04-08T12:38:47.842Z,15.15
2023-04-08T12:41:21.895Z,15.28
2023-04-08T12:43:55.163Z,15.43
2023-04-08T12:46:28.524Z,15.61
2023-04-08T12:49:04.560Z,15.53
2023-04-08T12:51:37.905Z,15.27
2023-04-08T12:54:10.089Z,15.29
2023-04-08T12:56:43.350Z,15.28
2023-04-08T12:59:16.447Z,15.42
2023-04-08T13:01:48.804Z,15.44
2023-04-08T13:04:21.220Z,15.52
2023-04-08T13:06:53.677Z,15.59
2023-04-08T13:09:25.962Z,15.71
2023-04-08T13:11:58.333Z,15.55
2023-04-08T13:14:30.881Z,15.58
2023-04-08T13:17:03.129Z,15.82
2023-04-08T13:19:35.709Z,16.01
2023-04-08T13:22:07.891Z,15.96
2023-04-08T13:24:40.236Z,15.88
2023-04-08T13:27:12.568Z,15.71
2023-04-08T13:29:45.281Z,15.83
2023-04-08T13:32:17.507Z,15.91
2023-04-08T13:34:50.402Z,15.71
2023-04-08T13:37:22.990Z,15.75
2023-04-08T13:39:55.221Z,15.84
2023-04-08T13:42:27.372Z,16.01
2023-04-08T13:44:59.553Z,16.16
2023-04-08T13:47:32.317Z,16.26
2023-04-08T13:50:04.695Z,16.34
2023-04-08T13:52:37.107Z,16.51
2023-04-08T13:55:10.651Z,16.54
2023-04-08T13:57:43.176Z,16.51
2023-04-08T14:00:17.403Z,16.57
2023-04-08T14:02:51.086Z,16.64
2023-04-08T14:05:23.575Z,16.74
2023-04-08T14:07:55.697Z,16.86
2023-04-08T14:10:28.332Z,16.71
2023-04-08T14:13:00.624Z,17.05
2023-04-08T14:15:33.118Z,17.01
2023-04-08T14:18:07.191Z,16.98
2023-04-08T14:20:41.500Z,16.99
2023-04-08T14:23:14.270Z,17.16
2023-04-08T14:25:46.717Z,17.14
2023-04-08T14:28:19.232Z,17.32
2023-04-08T14:30:51.698Z,17.20
2023-04-08T14:33:24.119Z,17.46
2023-04-08T14:35:56.772Z,17.59
2023-04-08T14:38:29.274Z,17.36
2023-04-08T14:41:01.750Z,17.17
2023-04-08T14:43:33.959Z,17.07
2023-04-08T14:46:06.706Z,16.92
2023-04-08T14:48:39.157Z,16.88
2023-04-08T14:51:11.437Z,16.52
2023-04-08T14:53:43.943Z,16.64
2023-04-08T14:56:16.254Z,16.65
2023-04-08T14:58:48.898Z,16.59
2023-04-08T15:01:21.870Z,16.45
2023-04-08T15:03:54.119Z,16.42
2023-04-08T15:06:27.672Z,16.38
2023-04-08T15:08:59.917Z,16.29
2023-04-08T15:11:32.427Z,16.28
2023-04-08T15:14:04.562Z,16.25
2023-04-08T15:16:36.917Z,16.22
2023-04-08T15:19:09.255Z,16.13
2023-04-08T15:21:41.930Z,16.07
2023-04-08T15:24:14.247Z,16.06
2023-04-08T15:26:46.604Z,15.98
2023-04-08T15:29:19.231Z,15.89
2023-04-08T15:31:52.768Z,15.81
2023-04-08T15:34:24.824Z,15.69
2023-04-08T15:36:57.638Z,15.67
2023-04-08T15:39:29.940Z,15.63
2023-04-08T15:42:02.665Z,15.59
2023-04-08T15:44:35.432Z,15.52
2023-04-08T15:47:08.182Z,15.45
2023-04-08T15:49:41.281Z,15.37
2023-04-08T15:52:13.675Z,15.34
2023-04-08T15:54:46.281Z,15.31
2023-04-08T15:57:18.478Z,15.19
2023-04-08T15:59:50.903Z,15.17
2023-04-08T16:02:23.576Z,15.12
2023-04-08T16:04:56.078Z,15.05
2023-04-08T16:07:28.554Z,14.97
2023-04-08T16:10:01.120Z,15.07
2023-04-08T16:12:33.510Z,15.09
2023-04-08T16:15:06.778Z,15.11
2023-04-08T16:17:39.015Z,15.15
2023-04-08T16:20:12.782Z,15.18
2023-04-08T16:22:44.958Z,15.11
2023-04-08T16:25:17.335Z,15.14
2023-04-08T16:27:49.718Z,15.17
2023-04-08T16:30:22.290Z,15.22
2023-04-08T16:32:55.279Z,15.23
2023-04-08T16:35:27.595Z,15.26
2023-04-08T16:38:00.279Z,15.25
2023-04-08T16:40:33.972Z,15.29
2023-04-08T16:43:06.516Z,15.24
2023-04-08T16:45:39.114Z,15.20
2023-04-08T16:48:12.698Z,15.18
2023-04-08T16:50:44.851Z,15.20
2023-04-08T16:53:17.162Z,15.17
2023-04-08T16:55:49.272Z,15.19
2023-04-08T16:58:21.844Z,15.16
2023-04-08T17:00:54.488Z,15.13
2023-04-08T17:03:28.564Z,15.14
2023-04-08T17:06:10.582Z,15.15
2023-04-08T17:08:43.646Z,15.15
2023-04-08T17:11:16.736Z,15.10
2023-04-08T17:13:50.035Z,15.02
2023-04-08T17:16:22.337Z,14.90
2023-04-08T17:18:56.938Z,14.70
2023-04-08T17:21:29.384Z,14.64
2023-04-08T17:24:01.733Z,14.53
2023-04-08T17:26:34.173Z,14.42
2023-04-08T17:29:06.787Z,14.31
2023-04-08T17:31:40.230Z,14.14
2023-04-08T17:34:13.111Z,14.11
2023-04-08T17:36:45.982Z,14.01
2023-04-08T17:39:18.713Z,13.93
2023-04-08T17:41:50.878Z,13.84
2023-04-08T17:44:29.582Z,13.79
2023-04-08T17:47:02.365Z,13.69
2023-04-08T17:49:34.724Z,13.64
2023-04-08T17:52:07.196Z,13.54
2023-04-08T17:54:41.550Z,13.46
2023-04-08T17:57:14.270Z,13.40
2023-04-08T17:59:46.692Z,13.31
2023-04-08T18:02:19.220Z,13.27
2023-04-08T18:04:52.561Z,13.19
2023-04-08T18:07:24.800Z,13.16
2023-04-08T18:09:57.115Z,13.12
2023-04-08T18:12:30.764Z,13.08
2023-04-08T18:15:03.421Z,13.03
2023-04-08T18:17:37.333Z,12.95
2023-04-08T18:20:11.263Z,12.90
2023-04-08T18:22:43.659Z,12.82
2023-04-08T18:25:15.787Z,12.76
2023-04-08T18:27:47.958Z,12.58
2023-04-08T18:30:20.675Z,12.66
2023-04-08T18:32:53.082Z,12.64
2023-04-08T18:35:26.928Z,12.56
2023-04-08T18:37:59.364Z,12.47
2023-04-08T18:40:32.114Z,12.41
2023-04-08T18:43:05.069Z,12.37
2023-04-08T18:45:37.662Z,12.33
2023-04-08T18:48:12.349Z,12.25
2023-04-08T18:50:43.040Z,12.20
2023-04-08T18:53:15.302Z,12.17
2023-04-08T18:55:47.502Z,12.14
2023-04-08T18:58:19.689Z,12.07
2023-04-08T19:00:52.078Z,12.05
2023-04-08T19:03:26.179Z,11.99
2023-04-08T19:05:59.001Z,11.97
2023-04-08T19:08:32.083Z,11.92
2023-04-08T19:11:04.984Z,11.85
2023-04-08T19:13:37.424Z,11.81
2023-04-08T19:16:11.046Z,11.75
2023-04-08T19:18:43.229Z,11.72
2023-04-08T19:21:15.483Z,11.68
2023-04-08T19:23:49.009Z,11.64
2023-04-08T19:26:21.344Z,11.63
2023-04-08T19:28:53.476Z,11.55
2023-04-08T19:31:25.656Z,11.57
2023-04-08T19:33:57.984Z,11.52
2023-04-08T19:36:30.943Z,11.46
2023-04-08T19:39:03.684Z,11.41
2023-04-08T19:41:35.775Z,11.35
2023-04-08T19:44:07.924Z,11.28
2023-04-08T19:46:41.432Z,11.21
2023-04-08T19:49:13.696Z,11.07
2023-04-08T19:51:46.243Z,11.10
2023-04-08T19:54:18.314Z,10.96
2023-04-08T19:56:50.670Z,10.88
2023-04-08T19:59:24.968Z,10.91
2023-04-08T20:01:57.929Z,10.86
2023-04-08T20:04:30.996Z,10.78
2023-04-08T20:07:03.799Z,10.74
2023-04-08T20:09:36.162Z,10.69
2023-04-08T20:12:09.211Z,10.68
2023-04-08T20:14:45.095Z,10.65
2023-04-08T20:17:18.198Z,10.60
2023-04-08T20:19:50.345Z,10.48
2023-04-08T20:22:22.791Z,10.53
2023-04-08T20:24:55.626Z,10.49
2023-04-08T20:27:27.985Z,10.44
2023-04-08T20:30:01.352Z,10.40
2023-04-08T20:32:34.805Z,10.38
2023-04-08T20:35:07.809Z,10.37
2023-04-08T20:37:40.457Z,10.37
2023-04-08T20:40:14.963Z,10.36
2023-04-08T20:42:48.497Z,10.31
2023-04-08T20:45:20.961Z,10.32
2023-04-08T20:47:54.184Z,10.32
2023-04-08T20:50:28.563Z,10.32
2023-04-08T20:53:00.793Z,10.32
2023-04-08T20:55:32.956Z,10.33
2023-04-08T20:58:07.620Z,10.32
2023-04-08T21:00:38.311Z,10.33
2023-04-08T21:03:10.412Z,10.34
2023-04-08T21:05:43.099Z,10.33
2023-04-08T21:08:15.973Z,10.33
2023-04-08T21:10:48.196Z,10.29
2023-04-08T21:13:20.539Z,10.20
2023-04-08T21:15:52.761Z,10.28
2023-04-08T21:18:25.024Z,10.27
2023-04-08T21:20:57.775Z,10.27
2023-04-08T21:23:30.332Z,10.23
2023-04-08T21:26:03.574Z,10.23
2023-04-08T21:28:36.258Z,10.22
2023-04-08T21:31:12.569Z,10.21
2023-04-08T21:33:44.897Z,10.20
2023-04-08T21:36:17.475Z,10.20
2023-04-08T21:38:51.072Z,10.18
2023-04-08T21:41:24.354Z,10.18
2023-04-08T21:43:57.201Z,10.09
2023-04-08T21:46:29.523Z,10.14
2023-04-08T21:49:02.062Z,10.11
2023-04-08T21:51:34.770Z,10.11
2023-04-08T21:54:07.030Z,10.09
2023-04-08T21:56:39.535Z,10.08
2023-04-08T21:59:11.893Z,10.06
2023-04-08T22:01:44.618Z,10.05
2023-04-08T22:04:17.071Z,10.06
2023-04-08T22:06:49.935Z,10.05
2023-04-08T22:09:22.460Z,10.06
2023-04-08T22:11:54.901Z,10.07
2023-04-08T22:14:27.148Z,10.06
2023-04-08T22:17:00.374Z,10.06
2023-04-08T22:19:32.998Z,10.04
2023-04-08T22:22:05.413Z,10.06
2023-04-08T22:24:38.293Z,10.05
2023-04-08T22:27:11.136Z,10.03
2023-04-08T22:29:43.584Z,10.01
2023-04-08T22:32:16.286Z,9.99
2023-04-08T22:34:48.491Z,9.98
2023-04-08T22:37:21.231Z,9.97
2023-04-08T22:39:55.161Z,9.94
2023-04-08T22:42:27.453Z,9.94
2023-04-08T22:44:59.936Z,9.93
2023-04-08T22:47:32.487Z,9.89
2023-04-08T22:50:05.069Z,9.88
2023-04-08T22:52:37.218Z,9.90
2023-04-08T22:55:12.295Z,9.89
2023-04-08T22:57:44.667Z,9.92
2023-04-08T23:00:17.585Z,9.88
2023-04-08T23:02:49.765Z,9.84
2023-04-08T23:05:22.209Z,9.79
2023-04-08T23:07:54.509Z,9.84
2023-04-08T23:10:26.893Z,9.84
2023-04-08T23:12:59.063Z,9.83
2023-04-08T23:15:31.708Z,9.87
2023-04-08T23:18:04.002Z,9.83
2023-04-08T23:20:36.736Z,9.81
2023-04-08T23:23:08.820Z,9.91
2023-04-08T23:25:41.029Z,9.87
2023-04-08T23:28:13.334Z,9.84
2023-04-08T23:30:46.918Z,9.84
2023-04-08T23:33:19.250Z,9.85
2023-04-08T23:35:51.619Z,9.83
2023-04-08T23:38:23.766Z,9.83
2023-04-08T23:40:56.824Z,9.84
2023-04-08T23:43:28.923Z,9.85
2023-04-08T23:46:01.427Z,9.79
2023-04-08T23:48:33.704Z,9.89
2023-04-08T23:51:06.949Z,9.90
2023-04-08T23:53:39.208Z,9.91
2023-04-08T23:56:12.656Z,9.93
2023-04-08T23:58:44.725Z,9.99
